createdAt,value
2018-11-13T00:01:52.160Z,89.41
2018-11-13T00:04:57.117Z,90.99
2018-11-13T00:08:02.081Z,89.12
2018-11-13T00:11:07.063Z,90.39
2018-11-13T00:14:12.049Z,90.62
2018-11-13T00:17:17.051Z,90.00
2018-11-13T00:20:22.005Z,89.33
2018-11-13T00:23:26.982Z,88.62
2018-11-13T00:26:31.969Z,88.35
2018-11-13T00:29:37.086Z,89.07
2018-11-13T00:32:42.507Z,88.50
2018-11-13T00:35:47.463Z,88.40
2018-11-13T00:38:52.437Z,89.04
2018-11-13T00:41:57.401Z,88.33
2018-11-13T00:45:02.465Z,89.71
2018-11-13T00:48:07.477Z,88.71
2018-11-13T00:51:12.442Z,87.49
2018-11-13T00:54:17.407Z,88.55
2018-11-13T00:57:22.358Z,88.10
2018-11-13T01:00:27.359Z,88.29
2018-11-13T01:03:32.379Z,88.11
2018-11-13T01:06:37.335Z,88.14
2018-11-13T01:09:42.331Z,86.50
2018-11-13T01:12:47.790Z,86.45
2018-11-13T01:15:52.749Z,87.70
2018-11-13T01:18:57.714Z,86.84
2018-11-13T01:22:02.658Z,86.98
2018-11-13T01:25:08.698Z,87.29
2018-11-13T01:28:13.649Z,87.14
2018-11-13T01:31:18.598Z,87.32
2018-11-13T01:34:30.481Z,87.44
2018-11-13T01:37:35.431Z,87.00
2018-11-13T01:40:40.394Z,87.36
2018-11-13T01:43:45.373Z,87.77
2018-11-13T01:46:50.354Z,88.85
2018-11-13T01:49:55.359Z,89.66
2018-11-13T01:53:00.340Z,87.63
2018-11-13T01:56:05.359Z,87.50
2018-11-13T01:59:10.346Z,87.33
2018-11-13T02:02:15.336Z,87.87
2018-11-13T02:05:21.520Z,87.87
2018-11-13T02:08:26.513Z,87.91
2018-11-13T02:11:31.493Z,87.40
2018-11-13T02:14:36.506Z,87.14
2018-11-13T02:17:41.479Z,88.15
2018-11-13T02:20:46.486Z,87.67
2018-11-13T02:23:51.457Z,87.43
2018-11-13T02:26:56.443Z,87.18
2018-11-13T02:30:01.450Z,87.43
2018-11-13T02:33:06.502Z,86.24
2018-11-13T02:36:11.487Z,86.40
2018-11-13T02:39:16.465Z,86.75
2018-11-13T02:42:21.430Z,86.71
2018-11-13T02:45:26.416Z,85.61
2018-11-13T02:48:31.450Z,85.79
2018-11-13T02:51:36.765Z,86.73
2018-11-13T02:54:41.783Z,87.55
2018-11-13T02:57:46.935Z,87.34
2018-11-13T03:00:51.936Z,86.76
2018-11-13T03:03:56.907Z,87.34
2018-11-13T03:07:01.895Z,86.69
2018-11-13T03:10:08.118Z,87.83
2018-11-13T03:13:13.113Z,87.97
2018-11-13T03:16:18.102Z,87.39
2018-11-13T03:19:23.082Z,88.86
2018-11-13T03:22:28.069Z,87.66
2018-11-13T03:25:33.189Z,88.07
2018-11-13T03:28:38.161Z,88.28
2018-11-13T03:31:43.179Z,88.61
2018-11-13T03:34:48.153Z,88.21
2018-11-13T03:37:53.136Z,88.29
2018-11-13T03:40:58.132Z,88.03
2018-11-13T03:44:03.110Z,88.83
2018-11-13T03:47:08.077Z,87.86
2018-11-13T03:50:15.624Z,88.06
2018-11-13T03:53:20.584Z,87.66
2018-11-13T03:56:25.576Z,88.22
2018-11-13T03:59:30.540Z,87.46
2018-11-13T04:02:35.549Z,87.88
2018-11-13T04:05:40.513Z,87.56
2018-11-13T04:08:45.615Z,87.43
2018-11-13T04:11:50.606Z,87.82
2018-11-13T04:14:55.550Z,89.31
2018-11-13T04:18:00.545Z,89.12
2018-11-13T04:21:05.529Z,89.10
2018-11-13T04:24:10.487Z,89.19
2018-11-13T04:27:15.445Z,88.35
2018-11-13T04:30:20.414Z,88.53
2018-11-13T04:33:25.387Z,88.45
2018-11-13T04:36:30.349Z,88.66
2018-11-13T04:39:35.309Z,88.15
2018-11-13T04:42:41.665Z,88.10
2018-11-13T04:45:46.614Z,88.94
2018-11-13T04:48:51.581Z,87.73
2018-11-13T04:51:56.538Z,87.90
2018-11-13T04:55:01.509Z,89.26
2018-11-13T04:58:07.670Z,88.58
2018-11-13T05:01:12.659Z,88.99
2018-11-13T05:04:17.612Z,89.31
2018-11-13T05:07:22.591Z,88.38
2018-11-13T05:10:27.555Z,87.62
2018-11-13T05:25:31.881Z,87.48
2018-11-13T05:28:36.923Z,87.76
2018-11-13T05:31:42.275Z,87.46
2018-11-13T05:34:47.249Z,86.56
2018-11-13T05:37:52.256Z,87.24
2018-11-13T05:40:57.255Z,86.79
2018-11-13T05:44:02.266Z,87.07
2018-11-13T05:47:07.432Z,86.90
2018-11-13T05:50:13.741Z,87.69
2018-11-13T05:53:18.727Z,88.41
2018-11-13T05:56:23.698Z,87.84
2018-11-13T05:59:28.681Z,88.14
2018-11-13T06:02:33.693Z,87.98
2018-11-13T06:05:38.665Z,88.19
2018-11-13T06:08:43.762Z,88.55
2018-11-13T06:11:49.197Z,86.85
2018-11-13T06:14:54.323Z,87.53
2018-11-13T06:17:59.427Z,87.70
2018-11-13T06:21:10.729Z,87.33
2018-11-13T06:24:15.737Z,85.74
2018-11-13T06:27:21.176Z,86.07
2018-11-13T06:30:26.367Z,86.17
2018-11-13T06:33:31.406Z,87.31
2018-11-13T06:36:36.454Z,86.26
2018-11-13T06:39:41.468Z,85.87
2018-11-13T06:42:46.460Z,85.76
2018-11-13T06:45:51.459Z,86.61
2018-11-13T06:48:56.528Z,86.49
2018-11-13T06:52:01.489Z,86.53
2018-11-13T06:55:10.130Z,87.26
2018-11-13T06:58:15.114Z,86.46
2018-11-13T07:01:20.238Z,88.11
2018-11-13T07:04:25.308Z,87.80
2018-11-13T07:07:30.327Z,87.38
2018-11-13T07:10:35.472Z,86.78
2018-11-13T07:13:40.613Z,87.07
2018-11-13T07:16:45.629Z,87.28
2018-11-13T07:19:50.989Z,86.47
2018-11-13T07:22:56.000Z,86.85
2018-11-13T07:26:01.032Z,87.96
2018-11-13T07:29:06.051Z,87.06
2018-11-13T07:32:11.119Z,87.89
2018-11-13T07:35:17.327Z,86.36
2018-11-13T07:38:22.305Z,86.13
2018-11-13T07:41:27.326Z,86.51
2018-11-13T07:44:32.366Z,85.41
2018-11-13T07:47:37.641Z,86.53
2018-11-13T07:50:42.372Z,85.64
2018-11-13T07:53:49.045Z,85.49
2018-11-13T07:56:54.054Z,86.01
2018-11-13T07:59:59.123Z,85.26
2018-11-13T08:03:42.406Z,86.44
2018-11-13T08:06:47.566Z,86.33
2018-11-13T08:09:52.528Z,87.43
2018-11-13T08:12:57.740Z,85.18
2018-11-13T08:16:02.591Z,86.41
2018-11-13T08:19:07.605Z,85.74
2018-11-13T08:22:12.646Z,85.63
2018-11-13T08:25:17.737Z,84.98
2018-11-13T08:28:22.789Z,85.92
2018-11-13T08:31:33.321Z,85.87
2018-11-13T08:34:38.312Z,85.76
2018-11-13T08:37:43.287Z,85.30
2018-11-13T08:40:48.278Z,85.61
2018-11-13T08:43:53.323Z,84.63
2018-11-13T08:46:58.318Z,85.07
2018-11-13T08:50:03.446Z,84.34
2018-11-13T08:53:08.474Z,84.21
2018-11-13T08:56:13.468Z,83.78
2018-11-13T08:59:18.667Z,84.21
2018-11-13T09:02:23.527Z,82.31
2018-11-13T09:05:28.526Z,81.53
2018-11-13T09:08:33.520Z,81.22
2018-11-13T09:11:38.638Z,79.46
2018-11-13T09:14:43.569Z,79.83
2018-11-13T09:17:48.578Z,79.99
2018-11-13T09:20:53.558Z,80.29
2018-11-13T09:23:58.546Z,78.67
2018-11-13T09:27:04.114Z,79.78
2018-11-13T09:30:11.841Z,80.58
2018-11-13T09:33:16.692Z,81.11
2018-11-13T09:36:22.212Z,80.15
2018-11-13T09:39:27.216Z,79.69
2018-11-13T09:42:32.183Z,81.24
2018-11-13T09:45:37.174Z,81.85
2018-11-13T09:48:42.441Z,81.78
2018-11-13T09:51:47.437Z,81.93
2018-11-13T09:54:52.512Z,81.41
2018-11-13T09:57:57.711Z,78.78
2018-11-13T10:01:02.912Z,78.62
2018-11-13T10:04:08.181Z,74.95
2018-11-13T10:07:12.780Z,75.01
2018-11-13T10:10:17.797Z,75.72
2018-11-13T10:13:22.823Z,74.46
2018-11-13T10:16:27.796Z,73.52
2018-11-13T10:19:32.781Z,73.87
2018-11-13T10:22:37.790Z,71.16
2018-11-13T10:25:42.791Z,71.83
2018-11-13T10:28:47.791Z,72.41
2018-11-13T10:31:52.802Z,72.41
2018-11-13T10:34:57.793Z,72.53
2018-11-13T10:38:02.779Z,74.40
2018-11-13T10:41:07.820Z,74.09
2018-11-13T10:44:12.765Z,75.22
2018-11-13T10:47:17.742Z,71.76
2018-11-13T10:50:23.984Z,72.56
2018-11-13T10:53:28.919Z,71.36
2018-11-13T10:56:33.954Z,70.34
2018-11-13T10:59:39.140Z,73.21
2018-11-13T11:02:49.975Z,70.97
2018-11-13T11:05:54.943Z,68.35
2018-11-13T11:08:59.939Z,67.53
2018-11-13T11:12:05.510Z,66.96
2018-11-13T11:15:10.523Z,67.78
2018-11-13T11:18:15.554Z,65.78
2018-11-13T11:21:20.495Z,66.12
2018-11-13T11:24:25.473Z,65.92
2018-11-13T11:27:43.611Z,64.19
2018-11-13T11:30:48.561Z,64.23
2018-11-13T11:33:53.614Z,63.69
2018-11-13T11:36:58.665Z,64.57
2018-11-13T11:40:04.026Z,66.11
2018-11-13T11:43:09.026Z,66.82
2018-11-13T11:46:14.019Z,67.53
2018-11-13T11:49:19.040Z,70.44
2018-11-13T11:52:24.058Z,67.67
2018-11-13T11:55:29.110Z,66.68
2018-11-13T11:58:34.178Z,66.24
2018-11-13T12:01:39.216Z,64.46
2018-11-13T12:04:44.210Z,62.87
2018-11-13T12:07:54.789Z,61.99
2018-11-13T12:36:08.316Z,60.59
2018-11-13T12:39:13.403Z,60.29
2018-11-13T12:42:18.518Z,61.65
2018-11-13T12:45:23.733Z,62.82
2018-11-13T12:48:28.722Z,62.40
2018-11-13T12:51:34.474Z,60.46
2018-11-13T12:54:39.533Z,61.97
2018-11-13T12:57:44.694Z,63.39
2018-11-13T13:00:49.669Z,63.42
2018-11-13T13:03:54.690Z,62.81
2018-11-13T13:06:59.670Z,62.80
2018-11-13T13:10:07.097Z,63.75
2018-11-13T13:13:12.123Z,66.16
2018-11-13T13:16:17.090Z,65.05
2018-11-13T13:19:22.065Z,65.47
2018-11-13T13:22:27.083Z,64.90
2018-11-13T13:25:32.060Z,64.48
2018-11-13T13:28:37.027Z,63.95
2018-11-13T13:31:42.034Z,63.65
2018-11-13T13:34:48.754Z,63.74
2018-11-13T13:37:53.737Z,65.37
2018-11-13T13:40:59.874Z,64.89
2018-11-13T13:44:05.011Z,65.05
2018-11-13T13:47:10.021Z,65.70
2018-11-13T13:50:15.054Z,63.68
2018-11-13T13:53:20.710Z,64.30
2018-11-13T13:56:25.792Z,65.37
2018-11-13T13:59:30.846Z,66.08
2018-11-13T14:02:35.807Z,65.27
2018-11-13T14:05:41.225Z,65.59
2018-11-13T14:08:46.204Z,64.42
2018-11-13T14:11:51.194Z,63.78
2018-11-13T14:14:56.411Z,65.58
2018-11-13T14:18:01.403Z,64.72
2018-11-13T14:21:06.508Z,64.11
2018-11-13T14:24:11.477Z,65.08
2018-11-13T14:27:16.473Z,65.29
2018-11-13T14:30:23.409Z,64.22
2018-11-13T14:33:28.460Z,65.56
2018-11-13T14:38:03.053Z,64.70
2018-11-13T14:41:08.021Z,64.54
2018-11-13T14:44:13.018Z,65.94
2018-11-13T14:47:18.001Z,65.90
2018-11-13T14:50:24.450Z,66.70
2018-11-13T14:53:29.454Z,67.47
2018-11-13T14:56:34.485Z,67.19
2018-11-13T14:59:39.477Z,67.36
2018-11-13T15:02:50.812Z,69.48
2018-11-13T15:05:55.830Z,68.44
2018-11-13T15:09:00.843Z,68.94
2018-11-13T15:12:06.014Z,70.04
2018-11-13T15:15:11.325Z,70.28
2018-11-13T15:21:46.911Z,71.28
2018-11-13T15:24:51.926Z,70.92
2018-11-13T15:27:56.912Z,70.80
2018-11-13T15:31:02.233Z,71.50
2018-11-13T15:34:07.121Z,70.85
2018-11-13T15:37:12.090Z,71.90
2018-11-13T15:40:19.870Z,72.19
2018-11-13T15:43:24.869Z,71.72
2018-11-13T15:46:29.859Z,72.66
2018-11-13T15:49:35.050Z,72.73
2018-11-13T15:52:40.099Z,72.59
2018-11-13T15:55:45.098Z,72.40
2018-11-13T15:58:50.118Z,73.71
2018-11-13T16:01:55.237Z,73.23
2018-11-13T16:05:00.957Z,73.20
2018-11-13T16:08:07.092Z,75.88
2018-11-13T16:11:12.137Z,74.87
2018-11-13T16:14:17.166Z,76.05
2018-11-13T16:17:22.256Z,76.26
2018-11-13T16:20:27.541Z,76.13
2018-11-13T16:23:32.570Z,76.30
2018-11-13T16:26:37.618Z,76.69
2018-11-13T16:29:42.697Z,75.85
2018-11-13T16:32:48.566Z,76.87
2018-11-13T16:35:53.554Z,75.74
2018-11-13T16:38:58.605Z,75.72
2018-11-13T16:42:03.857Z,76.74
2018-11-13T16:45:10.047Z,76.74
2018-11-13T16:48:15.232Z,76.83
2018-11-13T16:51:20.415Z,76.58
2018-11-13T16:54:30.282Z,77.75
2018-11-13T16:57:35.330Z,78.84
2018-11-13T17:00:40.591Z,78.05
2018-11-13T17:03:45.601Z,78.34
2018-11-13T17:06:50.737Z,78.48
2018-11-13T17:09:55.626Z,79.69
2018-11-13T17:13:07.201Z,79.35
2018-11-13T17:16:12.265Z,80.14
2018-11-13T17:19:17.235Z,81.58
2018-11-13T17:22:22.275Z,82.01
2018-11-13T17:25:28.760Z,81.26
2018-11-13T17:28:33.732Z,82.11
2018-11-13T17:31:39.013Z,82.42
2018-11-13T17:34:44.097Z,82.43
2018-11-13T17:37:49.875Z,82.17
2018-11-13T17:40:54.881Z,83.33
2018-11-13T17:43:59.913Z,83.12
2018-11-13T17:47:05.656Z,83.51
2018-11-13T17:50:15.085Z,84.27
2018-11-13T17:53:20.396Z,83.20
2018-11-13T17:56:25.605Z,83.50
2018-11-13T17:59:31.118Z,83.66
2018-11-13T18:02:36.213Z,85.63
2018-11-13T18:05:41.949Z,85.86
2018-11-13T18:08:47.172Z,86.67
2018-11-13T18:11:52.286Z,85.75
2018-11-13T18:15:08.583Z,85.85
2018-11-13T18:18:13.622Z,86.60
2018-11-13T18:21:18.724Z,86.60
2018-11-13T18:24:24.262Z,86.90
2018-11-13T18:27:29.466Z,86.63
2018-11-13T18:30:35.878Z,86.69
2018-11-13T18:33:40.873Z,87.03
2018-11-13T18:36:45.930Z,86.55
2018-11-13T18:39:51.037Z,86.67
2018-11-13T18:42:57.474Z,86.53
2018-11-13T18:46:02.537Z,87.08
2018-11-13T18:49:07.569Z,87.04
2018-11-13T18:52:12.718Z,87.32
2018-11-13T18:55:17.937Z,87.00
2018-11-13T18:58:23.054Z,86.36
2018-11-13T19:01:28.240Z,87.97
2018-11-13T19:04:33.577Z,87.21
2018-11-13T19:07:39.099Z,87.05
2018-11-13T19:10:45.434Z,86.74
2018-11-13T19:13:50.532Z,86.53
2018-11-13T19:16:55.725Z,86.65
2018-11-13T19:20:00.826Z,86.78
2018-11-13T19:23:05.964Z,87.69
2018-11-13T19:26:10.986Z,88.44
2018-11-13T19:29:16.125Z,89.83
2018-11-13T19:32:22.601Z,91.25
2018-11-13T19:35:28.068Z,91.19
2018-11-13T19:38:32.982Z,91.75
2018-11-13T19:41:44.358Z,90.27
2018-11-13T19:44:49.903Z,89.93
2018-11-13T19:47:54.611Z,90.64
2018-11-13T19:50:59.764Z,90.58
2018-11-13T19:54:05.271Z,91.10
2018-11-13T19:57:10.415Z,90.74
2018-11-13T20:00:21.748Z,90.46
2018-11-13T20:03:26.931Z,90.12
2018-11-13T20:06:32.114Z,89.57
2018-11-13T20:09:37.191Z,90.00
2018-11-13T20:12:43.025Z,89.20
2018-11-13T20:15:48.126Z,89.39
2018-11-13T20:18:53.345Z,88.46
2018-11-13T20:25:31.702Z,88.24
2018-11-13T20:28:36.806Z,88.12
2018-11-13T20:31:41.794Z,88.66
2018-11-13T20:34:57.414Z,88.81
2018-11-13T20:38:02.976Z,90.29
2018-11-13T20:41:07.992Z,89.96
2018-11-13T20:47:43.951Z,89.23
2018-11-13T20:50:48.962Z,88.62
2018-11-13T20:53:54.316Z,89.17
2018-11-13T20:56:59.314Z,89.39
2018-11-13T21:00:07.046Z,89.48
2018-11-13T21:03:12.029Z,89.62
2018-11-13T21:06:20.898Z,88.66
2018-11-13T21:09:25.908Z,88.76
2018-11-13T21:15:07.341Z,89.79
2018-11-13T21:18:12.339Z,88.96
2018-11-13T21:21:20.367Z,89.27
2018-11-13T21:24:25.743Z,89.24
2018-11-13T21:27:30.894Z,88.94
2018-11-13T21:30:35.962Z,89.55
2018-11-13T21:33:40.842Z,88.89
2018-11-13T21:36:45.838Z,88.48
2018-11-13T21:39:50.826Z,88.60
2018-11-13T21:42:56.287Z,88.78
2018-11-13T21:46:01.213Z,88.70
2018-11-13T21:49:06.253Z,89.56
2018-11-13T21:52:11.205Z,89.75
2018-11-13T21:55:17.741Z,88.93
2018-11-13T21:58:22.705Z,89.73
2018-11-13T22:01:27.776Z,89.67
2018-11-13T22:04:32.840Z,89.64
2018-11-13T22:07:38.069Z,88.93
2018-11-13T22:10:43.024Z,90.43
2018-11-13T22:13:48.257Z,89.87
2018-11-13T22:16:53.434Z,90.58
2018-11-13T22:19:58.547Z,91.08
2018-11-13T22:23:03.197Z,90.09
2018-11-13T22:26:08.151Z,90.23
2018-11-13T22:29:13.208Z,89.66
2018-11-13T22:32:18.111Z,89.11
2018-11-13T22:35:23.428Z,89.42
2018-11-13T22:38:28.421Z,90.29
2018-11-13T22:41:33.386Z,90.28
2018-11-13T22:44:38.358Z,90.11
2018-11-13T22:47:43.352Z,89.73
2018-11-13T22:50:48.393Z,89.93
2018-11-13T22:53:53.364Z,90.38
2018-11-13T22:56:58.302Z,90.56
2018-11-13T23:03:08.017Z,89.09
2018-11-13T23:06:12.999Z,89.17
2018-11-13T23:09:17.976Z,89.27
2018-11-13T23:12:22.932Z,90.31
2018-11-13T23:15:27.931Z,89.25
2018-11-13T23:18:32.929Z,90.18
2018-11-13T23:21:37.921Z,89.46
2018-11-13T23:24:42.927Z,89.40
2018-11-13T23:27:49.015Z,89.50
2018-11-13T23:30:54.133Z,90.51
2018-11-13T23:33:59.012Z,89.89
2018-11-13T23:37:03.985Z,90.51
2018-11-13T23:40:10.853Z,89.36
2018-11-13T23:43:15.821Z,89.40
2018-11-13T23:46:20.833Z,90.72
2018-11-13T23:49:25.838Z,89.80
2018-11-13T23:52:31.142Z,90.49
2018-11-13T23:55:36.164Z,89.72
2018-11-13T23:58:41.077Z,89.50
